createdAt,value
2023-02-07T00:01:40.857Z,102760.20
2023-02-07T00:06:44.107Z,102759.20
2023-02-07T00:11:47.316Z,102755.80
2023-02-07T00:16:50.654Z,102750.20
2023-02-07T00:21:53.821Z,102759.20
2023-02-07T00:26:57.038Z,102760.40
2023-02-07T00:32:00.476Z,102757.00
2023-02-07T00:37:05.174Z,102759.80
2023-02-07T00:42:08.813Z,102759.00
2023-02-07T00:47:11.924Z,102752.20
2023-02-07T00:52:15.024Z,102745.60
2023-02-07T00:57:18.153Z,102753.40
2023-02-07T01:02:21.337Z,102770.80
2023-02-07T01:07:24.449Z,102770.20
2023-02-07T01:12:27.559Z,102757.60
2023-02-07T01:17:30.570Z,102762.00
2023-02-07T01:22:33.873Z,102759.60
2023-02-07T01:27:37.803Z,102750.80
2023-02-07T01:32:40.904Z,102758.40
2023-02-07T01:37:44.009Z,102746.00
2023-02-07T01:42:47.214Z,102749.00
2023-02-07T01:47:54.129Z,102750.60
2023-02-07T01:53:01.979Z,102747.80
2023-02-07T01:58:07.323Z,102743.20
2023-02-07T02:03:10.492Z,102740.40
2023-02-07T02:08:13.602Z,102729.80
2023-02-07T02:13:39.253Z,102728.80
2023-02-07T02:18:58.742Z,102725.40
2023-02-07T02:24:23.164Z,102728.60
2023-02-07T02:29:47.476Z,102722.80
2023-02-07T02:35:27.403Z,102726.20
2023-02-07T02:40:57.645Z,102725.20
2023-02-07T02:46:12.694Z,102724.60
2023-02-07T02:51:16.247Z,102732.40
2023-02-07T02:56:59.124Z,102742.40
2023-02-07T03:02:36.499Z,102737.80
2023-02-07T03:07:57.441Z,102736.80
2023-02-07T03:13:31.814Z,102724.80
2023-02-07T03:19:05.503Z,102742.40
2023-02-07T03:24:23.354Z,102740.00
2023-02-07T03:29:30.854Z,102715.80
2023-02-07T03:34:40.400Z,102711.80
2023-02-07T03:39:43.920Z,102712.00
2023-02-07T03:44:49.634Z,102708.20
2023-02-07T03:49:52.835Z,102701.60
2023-02-07T03:54:55.998Z,102703.40
2023-02-07T03:59:59.141Z,102705.20
2023-02-07T04:05:02.420Z,102705.20
2023-02-07T04:10:07.031Z,102704.80
2023-02-07T04:15:10.995Z,102695.20
2023-02-07T04:20:14.325Z,102700.00
2023-02-07T04:25:17.506Z,102698.40
2023-02-07T04:30:20.827Z,102691.80
2023-02-07T04:35:24.436Z,102691.20
2023-02-07T04:40:27.460Z,102713.60
2023-02-07T04:45:30.448Z,102716.00
2023-02-07T04:50:33.545Z,102720.00
2023-02-07T04:55:37.715Z,102711.40
2023-02-07T05:00:41.808Z,102716.40
2023-02-07T05:05:45.836Z,102710.00
2023-02-07T05:10:56.692Z,102700.60
2023-02-07T05:16:04.400Z,102709.20
2023-02-07T05:21:07.550Z,102707.60
2023-02-07T05:26:10.783Z,102715.40
2023-02-07T05:31:13.927Z,102719.40
2023-02-07T05:36:17.302Z,102714.00
2023-02-07T05:41:20.399Z,102711.60
2023-02-07T05:46:23.577Z,102711.80
2023-02-07T05:51:27.021Z,102701.40
2023-02-07T05:56:30.122Z,102699.40
2023-02-07T06:01:33.319Z,102706.80
2023-02-07T06:06:36.942Z,102720.80
2023-02-07T06:11:40.040Z,102718.60
2023-02-07T06:16:43.152Z,102719.20
2023-02-07T06:21:47.081Z,102725.80
2023-02-07T06:26:50.313Z,102728.20
2023-02-07T06:31:53.415Z,102734.80
2023-02-07T06:36:56.491Z,102730.60
2023-02-07T06:41:59.510Z,102729.40
2023-02-07T06:47:02.601Z,102729.20
2023-02-07T06:52:05.712Z,102740.20
2023-02-07T06:57:09.019Z,102749.80
2023-02-07T07:02:13.058Z,102762.00
2023-02-07T07:07:16.166Z,102758.60
2023-02-07T07:12:19.265Z,102779.00
2023-02-07T07:17:22.393Z,102785.00
2023-02-07T07:22:26.708Z,102795.20
2023-02-07T07:27:29.828Z,102787.00
2023-02-07T07:32:34.439Z,102790.80
2023-02-07T07:37:37.774Z,102788.60
2023-02-07T07:42:40.980Z,102792.00
2023-02-07T07:47:44.076Z,102792.80
2023-02-07T07:52:47.224Z,102798.80
2023-02-07T07:57:50.497Z,102794.40
2023-02-07T08:02:53.629Z,102792.60
2023-02-07T08:07:56.708Z,102777.20
2023-02-07T08:12:59.728Z,102766.80
2023-02-07T08:18:03.127Z,102777.80
2023-02-07T08:23:06.338Z,102775.20
2023-02-07T08:28:10.606Z,102775.60
2023-02-07T08:33:15.586Z,102772.80
2023-02-07T08:38:18.927Z,102781.40
2023-02-07T08:43:22.036Z,102766.00
2023-02-07T08:48:25.185Z,102760.00
2023-02-07T08:53:28.249Z,102768.80
2023-02-07T08:58:33.667Z,102764.80
2023-02-07T09:03:38.735Z,102759.40
2023-02-07T09:08:41.801Z,102755.80
2023-02-07T09:13:46.585Z,102756.80
2023-02-07T09:18:50.376Z,102759.20
2023-02-07T09:23:54.564Z,102757.20
2023-02-07T09:28:57.887Z,102754.40
2023-02-07T09:34:03.033Z,102755.60
2023-02-07T09:39:07.499Z,102753.60
2023-02-07T09:44:37.370Z,102755.40
2023-02-07T09:49:53.061Z,102754.00
2023-02-07T09:55:00.950Z,102756.00
2023-02-07T10:00:29.738Z,102761.20
2023-02-07T10:05:45.821Z,102774.80
2023-02-07T10:11:03.899Z,102775.20
2023-02-07T10:16:38.030Z,102771.80
2023-02-07T10:22:26.712Z,102777.20
2023-02-07T10:27:42.783Z,102776.60
2023-02-07T10:32:47.865Z,102778.60
2023-02-07T10:37:57.028Z,102776.20
2023-02-07T10:43:30.328Z,102778.80
2023-02-07T10:48:35.636Z,102787.60
2023-02-07T10:53:55.004Z,102780.40
2023-02-07T10:59:00.613Z,102791.80
2023-02-07T11:04:24.186Z,102787.00
2023-02-07T11:09:27.856Z,102782.40
2023-02-07T11:14:31.093Z,102770.00
2023-02-07T11:19:34.368Z,102770.40
2023-02-07T11:24:38.629Z,102772.60
2023-02-07T11:30:04.545Z,102763.00
2023-02-07T11:35:09.817Z,102774.80
2023-02-07T11:40:38.801Z,102777.00
2023-02-07T11:45:47.624Z,102782.40
2023-02-07T11:50:56.203Z,102777.60
2023-02-07T11:55:59.808Z,102781.20
2023-02-07T12:01:06.886Z,102778.20
2023-02-07T12:06:19.343Z,102770.80
2023-02-07T12:11:31.766Z,102754.60
2023-02-07T12:16:44.899Z,102751.60
2023-02-07T12:22:20.316Z,102759.80
2023-02-07T12:27:34.941Z,102760.00
2023-02-07T12:33:01.510Z,102762.60
2023-02-07T12:38:25.740Z,102773.00
2023-02-07T12:43:36.147Z,102773.80
2023-02-07T12:49:40.826Z,102767.80
2023-02-07T12:55:18.434Z,102761.80
2023-02-07T13:00:38.340Z,102763.40
2023-02-07T13:06:15.655Z,102760.80
2023-02-07T13:11:54.694Z,102757.80
2023-02-07T13:17:19.200Z,102766.60
2023-02-07T13:22:47.517Z,102764.80
2023-02-07T13:27:56.194Z,102766.40
2023-02-07T13:33:32.734Z,102766.40
2023-02-07T13:38:48.951Z,102771.20
2023-02-07T13:44:16.338Z,102771.20
2023-02-07T13:49:44.750Z,102772.20
2023-02-07T13:55:17.625Z,102777.20
2023-02-07T14:00:25.362Z,102775.00
2023-02-07T14:05:36.801Z,102786.00
2023-02-07T14:10:53.359Z,102781.60
2023-02-07T14:16:13.176Z,102781.20
2023-02-07T14:21:19.773Z,102784.00
2023-02-07T14:26:38.522Z,102782.00
2023-02-07T14:38:08.801Z,102792.20
2023-02-07T14:43:11.929Z,102788.80
2023-02-07T14:48:42.455Z,102800.00
2023-02-07T14:53:58.964Z,102798.60
2023-02-07T14:59:02.805Z,102816.80
2023-02-07T15:04:10.895Z,102808.20
2023-02-07T15:09:28.472Z,102818.20
2023-02-07T15:14:34.760Z,102826.00
2023-02-07T15:19:41.917Z,102831.60
2023-02-07T15:24:51.457Z,102834.60
2023-02-07T15:30:06.712Z,102831.00
2023-02-07T15:35:24.141Z,102838.20
2023-02-07T15:40:27.655Z,102839.80
2023-02-07T15:45:33.719Z,102841.40
2023-02-07T15:50:38.514Z,102843.80
2023-02-07T15:55:48.730Z,102853.60
2023-02-07T16:00:53.444Z,102848.60
2023-02-07T16:06:22.064Z,102858.40
2023-02-07T16:11:28.004Z,102858.20
2023-02-07T16:16:53.935Z,102868.60
2023-02-07T16:22:08.600Z,102880.60
2023-02-07T16:27:24.578Z,102873.60
2023-02-07T16:32:33.474Z,102879.20
2023-02-07T16:37:36.549Z,102882.20
2023-02-07T16:42:41.502Z,102888.60
2023-02-07T16:47:45.014Z,102884.00
2023-02-07T16:52:51.123Z,102893.60
2023-02-07T16:57:56.249Z,102895.40
2023-02-07T17:02:59.486Z,102889.20
2023-02-07T17:08:02.663Z,102894.20
2023-02-07T17:13:05.888Z,102894.80
2023-02-07T17:18:12.722Z,102899.80
2023-02-07T17:23:15.791Z,102897.40
2023-02-07T17:28:19.125Z,102890.60
2023-02-07T17:33:22.814Z,102903.40
2023-02-07T17:38:26.006Z,102902.40
2023-02-07T17:43:29.319Z,102908.40
2023-02-07T17:48:33.656Z,102913.80
2023-02-07T17:53:36.773Z,102921.60
2023-02-07T17:58:39.865Z,102928.00
2023-02-07T18:03:43.078Z,102939.40
2023-02-07T18:08:47.332Z,102935.60
2023-02-07T18:13:50.658Z,102937.60
2023-02-07T18:18:57.234Z,102947.60
2023-02-07T18:24:00.326Z,102953.20
2023-02-07T18:29:03.923Z,102954.80
2023-02-07T18:34:07.666Z,102972.40
2023-02-07T18:39:13.932Z,102975.80
2023-02-07T18:44:17.055Z,102984.40
2023-02-07T18:49:20.552Z,102977.80
2023-02-07T18:54:24.698Z,102976.80
2023-02-07T18:59:28.608Z,102972.40
2023-02-07T19:04:32.022Z,102973.40
2023-02-07T19:09:35.460Z,102966.80
2023-02-07T19:14:38.653Z,102966.00
2023-02-07T19:19:43.384Z,102970.80
2023-02-07T19:24:46.596Z,102965.20
2023-02-07T19:29:49.908Z,102964.00
2023-02-07T19:34:53.331Z,102969.80
2023-02-07T19:39:56.733Z,102979.60
2023-02-07T19:45:00.015Z,102977.80
2023-02-07T19:50:03.461Z,102981.00
2023-02-07T19:55:07.588Z,102992.40
2023-02-07T20:00:12.043Z,102998.20
2023-02-07T20:05:15.144Z,103000.80
2023-02-07T20:10:20.137Z,102990.20
2023-02-07T20:15:23.293Z,102992.80
2023-02-07T20:20:26.610Z,102997.60
2023-02-07T20:25:33.815Z,102996.60
2023-02-07T20:30:44.100Z,103004.20
2023-02-07T20:35:47.194Z,103001.20
2023-02-07T20:40:50.296Z,102999.20
2023-02-07T20:46:14.441Z,102992.60
2023-02-07T20:51:17.705Z,102992.60
2023-02-07T20:56:20.918Z,102997.80
2023-02-07T21:01:28.585Z,103010.20
2023-02-07T21:06:34.287Z,103011.40
2023-02-07T21:11:45.300Z,103019.80
2023-02-07T21:16:49.526Z,103022.60
2023-02-07T21:21:55.200Z,103027.40
2023-02-07T21:26:59.011Z,103032.80
2023-02-07T21:32:03.124Z,103039.20
2023-02-07T21:37:06.349Z,103040.20
2023-02-07T21:42:09.652Z,103047.80
2023-02-07T21:47:12.768Z,103050.40
2023-02-07T21:52:16.686Z,103062.20
2023-02-07T21:57:19.791Z,103060.40
2023-02-07T22:02:22.928Z,103066.20
2023-02-07T22:07:26.148Z,103070.80
2023-02-07T22:12:29.855Z,103080.80
2023-02-07T22:17:33.068Z,103076.80
2023-02-07T22:22:36.257Z,103074.80
2023-02-07T22:27:39.561Z,103073.20
2023-02-07T22:32:42.872Z,103077.40
2023-02-07T22:37:46.176Z,103079.40
2023-02-07T22:42:49.458Z,103073.60
2023-02-07T22:47:52.603Z,103077.40
2023-02-07T22:52:56.639Z,103086.40
2023-02-07T22:58:00.138Z,103091.60
2023-02-07T23:03:03.346Z,103094.00
2023-02-07T23:08:06.972Z,103092.00
2023-02-07T23:13:10.931Z,103097.80
2023-02-07T23:18:15.836Z,103102.00
2023-02-07T23:23:19.250Z,103103.80
2023-02-07T23:28:22.602Z,103105.80
2023-02-07T23:33:25.806Z,103096.00
2023-02-07T23:38:29.081Z,103097.00
2023-02-07T23:43:32.290Z,103096.00
2023-02-07T23:48:38.536Z,103102.20
2023-02-07T23:53:43.500Z,103103.20
2023-02-07T23:58:48.655Z,103105.80
